Time;durP1;ratioP1;P1;durP2;ratioP2;P2;SDS_P1;SDS_P2;PMS_P1;PMS_P2;Temp;Humidity;BMP_temperature;BMP_pressure;BME280_temperature;BME280_humidity;BME280_pressure;Samples;Min_cycle;Max_cycle;Signal;HPM_P1;HPM_P2
2023/07/25 02:35:06;;;;;;;;;;;;;;;18.04;75.92;98730.47;1082591;54;19954;-80
2023/07/25 02:36:07;;;;;;;;;;;;;;;18.07;75.56;98727.31;1084236;54;19947;-80
2023/07/25 02:37:11;;;;;;;;;;;;;;;18.05;75.85;98726.69;1085548;39;20667;-83
2023/07/25 02:38:12;;;;;;;;;;;;;;;18.04;75.92;98733.19;1083695;47;19953;-82
2023/07/25 02:39:15;;;;;;;;;;;;;;;18.02;75.97;98725.28;1083182;47;19950;-82
2023/07/25 02:40:16;;;;;;;;;;;;;;;17.98;76.18;98721.38;1083803;47;19939;-81
2023/07/25 02:41:19;;;;;;;;;;;;;;;17.97;76.17;98729.72;1082895;54;20061;-81
2023/07/25 02:42:20;;;;;;;;;;;;;;;17.97;76.04;98718.88;1084890;54;19954;-83
2023/07/25 02:43:24;;;;;;;;;;;;;;;17.91;76.48;98721.44;1084986;54;20002;-83
2023/07/25 03:49:25;;;;;;;;;;;;;;;18.00;77.17;98683.31;1076048;54;20743;-82
2023/07/25 05:55:02;;;;;;;;;;;;;;;17.45;85.31;98749.75;1087097;54;19926;-85
2023/07/25 06:14:50;;;;;;;;;;;;;;;17.79;82.99;98731.31;1087697;54;19983;-87
2023/07/25 06:15:58;;;;;;;;;;;;;;;17.75;83.20;98733.66;1087256;54;19938;-89
2023/07/25 06:25:36;;;;;;;;;;;;;;;17.84;83.01;98726.09;1088580;54;19957;-86
2023/07/25 06:26:40;;;;;;;;;;;;;;;17.86;82.68;98718.56;1088604;54;19958;-84
2023/07/25 06:27:50;;;;;;;;;;;;;;;17.91;82.90;98724.13;1088657;54;19923;-85
2023/07/25 06:28:57;;;;;;;;;;;;;;;17.84;82.88;98720.69;1088584;54;19923;-85
2023/07/25 06:30:05;;;;;;;;;;;;;;;17.88;82.78;98726.47;1088283;47;19969;-87
2023/07/25 06:38:39;;;;;;;;;;;;;;;17.93;81.92;98722.03;1084501;54;19946;-85
2023/07/25 06:43:39;;;;;;;;;;;;;;;18.05;82.27;98710.47;1088605;54;19915;-86
2023/07/25 06:53:50;;;;;;;;;;;;;;;18.12;81.33;98705.84;1088261;54;19954;-86
2023/07/25 06:55:02;;;;;;;;;;;;;;;18.03;81.60;98704.50;1088529;54;19953;-87
2023/07/25 06:58:30;;;;;;;;;;;;;;;17.95;82.13;98710.19;1081515;54;19930;-81
2023/07/25 06:59:34;;;;;;;;;;;;;;;17.85;82.37;98703.41;1088029;47;20001;-86
2023/07/25 07:18:18;;;;;;;;;;;;;;;18.13;81.16;98679.59;1087928;47;19930;-87
2023/07/25 07:19:19;;;;;;;;;;;;;;;18.15;81.21;98682.91;1087825;47;19945;-87
2023/07/25 07:28:37;;;;;;;;;;;;;;;18.51;79.72;98681.19;1084581;54;19942;-87
2023/07/25 07:35:10;;;;;;;;;;;;;;;19.06;77.83;98674.75;1088243;54;20417;-84
2023/07/25 07:36:31;;;;;;;;;;;;;;;18.98;78.09;98675.09;1088507;47;19946;-86
2023/07/25 07:41:46;;;;;;;;;;;;;;;19.39;77.15;98662.50;1082233;54;19946;-85
2023/07/25 07:50:38;;;;;;;;;;;;;;;;;;;;;
2023/07/25 08:33:23;;;;;;;;;;;;;;;21.49;64.50;98639.47;1082429;54;20778;31
2023/07/25 08:54:45;;;;;;;;;;;;;;;21.20;65.04;98633.34;1078235;54;19962;31
2023/07/25 09:01:57;;;;;;;;;;;;;;;20.84;65.94;98625.47;1077409;54;20271;31
2023/07/25 09:29:58;;;;;;;;;;;;;;;21.71;57.73;98597.13;1087034;39;20312;31
2023/07/25 09:56:15;;;;;;;;;;;;;;;22.71;54.28;98579.63;1081208;54;19946;31
2023/07/25 10:03:59;;;;;;;;;;;;;;;22.22;53.71;98567.72;1088413;54;19955;-87
2023/07/25 10:06:06;;;;;;;;;;;;;;;22.21;53.80;98574.25;1088542;54;19987;-87
2023/07/25 10:11:00;;;;;;;;;;;;;;;22.25;53.57;98567.22;1085197;54;19934;31
2023/07/25 10:57:17;;;;;;;;;;;;;;;18.65;76.83;98660.16;1086497;54;19931;-86
2023/07/25 11:30:15;;;;;;;;;;;;;;;19.47;69.27;98662.13;1076736;54;19943;31
2023/07/25 12:06:44;;;;;;;;;;;;;;;18.40;74.46;98739.59;1088235;47;19931;-85
2023/07/25 12:07:49;;;;;;;;;;;;;;;18.50;74.20;98736.34;1088111;47;19934;-85
2023/07/25 12:09:06;;;;;;;;;;;;;;;18.45;74.65;98730.81;1088247;47;19939;-84
2023/07/25 12:22:36;;;;;;;;;;;;;;;18.01;75.47;98730.91;1088773;54;19982;-87
2023/07/25 12:23:40;;;;;;;;;;;;;;;18.12;75.87;98721.22;1088466;46;19938;-86
2023/07/25 12:38:00;;;;;;;;;;;;;;;17.64;81.03;98736.28;1088636;54;20492;-85
2023/07/25 12:45:22;;;;;;;;;;;;;;;18.12;79.00;98732.88;1084980;54;20891;-84
2023/07/25 12:51:09;;;;;;;;;;;;;;;17.99;78.41;98733.00;1087910;54;20010;-83
2023/07/25 12:52:10;;;;;;;;;;;;;;;18.15;78.40;98743.22;1089171;39;20768;-84
2023/07/25 12:53:19;;;;;;;;;;;;;;;18.13;77.94;98742.66;1088346;46;19938;-85
2023/07/25 12:54:23;;;;;;;;;;;;;;;18.27;77.80;98745.16;1088258;54;19934;-89
2023/07/25 12:55:26;;;;;;;;;;;;;;;18.35;77.40;98745.69;1088560;46;19946;-85
2023/07/25 13:00:13;;;;;;;;;;;;;;;18.61;76.21;98753.72;1088011;54;19935;-86
2023/07/25 13:01:23;;;;;;;;;;;;;;;18.61;76.25;98761.81;1088786;54;19950;-87
2023/07/25 13:12:27;;;;;;;;;;;;;;;18.77;76.41;98749.50;1089067;46;19950;-85
2023/07/25 13:13:28;;;;;;;;;;;;;;;18.64;76.59;98761.34;1087897;47;19939;-84
2023/07/25 13:14:32;;;;;;;;;;;;;;;18.76;76.02;98747.84;1087599;47;20555;-84
2023/07/25 13:15:33;;;;;;;;;;;;;;;18.57;76.03;98750.59;1087224;54;20485;-84
2023/07/25 13:16:39;;;;;;;;;;;;;;;18.69;75.98;98756.09;1087661;47;19953;-87
2023/07/25 13:17:40;;;;;;;;;;;;;;;18.95;75.67;98745.97;1087857;47;20017;-82
2023/07/25 13:18:44;;;;;;;;;;;;;;;19.08;75.64;98753.84;1089045;39;20427;-84
2023/07/25 13:19:44;;;;;;;;;;;;;;;19.08;74.54;98751.16;1091692;39;20693;-83
2023/07/25 13:20:55;;;;;;;;;;;;;;;19.02;73.89;98749.38;1087810;54;19969;-84
2023/07/25 13:21:55;;;;;;;;;;;;;;;19.10;73.21;98740.91;1087477;47;20024;-82
2023/07/25 13:22:56;;;;;;;;;;;;;;;19.13;73.29;98745.03;1087914;47;19934;-84
2023/07/25 13:24:12;;;;;;;;;;;;;;;18.91;73.23;98744.72;1087734;47;19939;-85
2023/07/25 13:52:19;;;;;;;;;;;;;;;19.37;69.15;98766.75;1087952;54;19966;-82
2023/07/25 13:53:20;;;;;;;;;;;;;;;19.32;68.96;98767.47;1086485;47;20002;-84
2023/07/25 13:54:33;;;;;;;;;;;;;;;19.32;68.38;98772.88;1088147;54;19967;-84
2023/07/25 13:55:34;;;;;;;;;;;;;;;19.45;68.40;98778.09;1087157;54;19965;-83
2023/07/25 13:56:38;;;;;;;;;;;;;;;19.54;68.71;98781.28;1087639;54;19974;-84
2023/07/25 13:57:57;;;;;;;;;;;;;;;19.60;68.46;98774.91;1087500;47;20008;-84
2023/07/25 13:59:04;;;;;;;;;;;;;;;19.70;68.42;98779.75;1086427;54;19946;-85
2023/07/25 14:00:16;;;;;;;;;;;;;;;19.69;68.50;98771.88;1088023;54;19998;-85
2023/07/25 14:01:17;;;;;;;;;;;;;;;19.82;68.23;98776.22;1088071;54;20047;-84
2023/07/25 14:02:20;;;;;;;;;;;;;;;19.87;67.83;98774.47;1085724;54;19950;-84
2023/07/25 14:03:21;;;;;;;;;;;;;;;19.93;67.92;98772.72;1087742;54;20036;-86
2023/07/25 14:04:24;;;;;;;;;;;;;;;19.98;67.79;98761.97;1087714;54;19981;-84
2023/07/25 14:05:26;;;;;;;;;;;;;;;20.02;68.14;98765.88;1086909;47;19938;-84
2023/07/25 14:06:29;;;;;;;;;;;;;;;20.02;67.60;98765.88;1086576;54;20006;-81
2023/07/25 14:07:33;;;;;;;;;;;;;;;20.04;67.17;98766.44;1086283;47;19950;-85
2023/07/25 14:08:33;;;;;;;;;;;;;;;20.14;67.50;98767.72;1085219;47;20622;-85
2023/07/25 14:09:37;;;;;;;;;;;;;;;20.18;67.31;98764.28;1087076;54;19946;-83
2023/07/25 14:10:39;;;;;;;;;;;;;;;19.92;66.80;98760.22;1086332;47;20002;-86
2023/07/25 14:11:43;;;;;;;;;;;;;;;19.89;66.66;98766.09;1085385;47;19943;-84
2023/07/25 14:12:44;;;;;;;;;;;;;;;19.97;66.19;98757.59;1085869;47;19950;-84
2023/07/25 14:13:47;;;;;;;;;;;;;;;20.07;67.20;98757.00;1085814;54;19957;-84
2023/07/25 14:14:48;;;;;;;;;;;;;;;20.12;66.88;98759.81;1086282;47;19962;-83
2023/07/25 14:15:52;;;;;;;;;;;;;;;20.04;65.94;98758.28;1086020;47;19955;-84
2023/07/25 14:16:53;;;;;;;;;;;;;;;20.13;66.19;98766.06;1084710;47;19950;-84
2023/07/25 14:17:57;;;;;;;;;;;;;;;20.19;65.27;98768.66;1083928;54;19947;-83
2023/07/25 14:18:57;;;;;;;;;;;;;;;20.15;65.33;98774.78;1084572;54;19991;-86
2023/07/25 14:20:01;;;;;;;;;;;;;;;20.16;65.37;98776.44;1085063;47;19963;-83
2023/07/25 14:21:01;;;;;;;;;;;;;;;20.02;65.06;98771.28;1084432;47;19973;-86
2023/07/25 14:22:05;;;;;;;;;;;;;;;19.74;64.95;98786.34;1085427;39;20528;-82
2023/07/25 14:23:08;;;;;;;;;;;;;;;19.82;64.90;98778.94;1082987;54;19946;-82
2023/07/25 14:24:12;;;;;;;;;;;;;;;19.83;64.34;98777.88;1084084;39;20771;-83
2023/07/25 14:25:12;;;;;;;;;;;;;;;19.91;64.43;98774.84;1083871;54;19976;-81
2023/07/25 14:26:17;;;;;;;;;;;;;;;19.95;64.10;98782.25;1083645;54;20905;-82
2023/07/25 14:27:20;;;;;;;;;;;;;;;19.96;63.87;98777.66;1084329;54;20973;-83
2023/07/25 14:28:23;;;;;;;;;;;;;;;19.99;63.65;98787.19;1083861;54;19976;-83
2023/07/25 14:29:24;;;;;;;;;;;;;;;19.87;63.56;98774.47;1083742;54;19951;-84
2023/07/25 14:30:25;;;;;;;;;;;;;;;20.00;63.53;98784.25;1084168;47;20684;-83
2023/07/25 14:31:28;;;;;;;;;;;;;;;19.99;63.52;98782.59;1083733;54;20030;-83
2023/07/25 14:32:29;;;;;;;;;;;;;;;20.13;63.49;98774.19;1083556;54;20010;-82
2023/07/25 14:33:33;;;;;;;;;;;;;;;20.20;63.17;98783.06;1083638;54;19986;-84
2023/07/25 14:34:33;;;;;;;;;;;;;;;20.30;63.25;98782.44;1083988;54;19974;-82
2023/07/25 14:35:37;;;;;;;;;;;;;;;20.26;63.08;98782.09;1084442;39;20518;-84
2023/07/25 14:36:38;;;;;;;;;;;;;;;20.30;63.88;98783.28;1083804;47;20520;-82
2023/07/25 14:37:41;;;;;;;;;;;;;;;20.38;63.53;98779.34;1083765;54;19946;-84
2023/07/25 14:38:44;;;;;;;;;;;;;;;20.39;63.29;98778.28;1083698;54;19947;-81
2023/07/25 14:39:47;;;;;;;;;;;;;;;20.25;62.81;98784.00;1084665;47;19982;-84
2023/07/25 14:40:48;;;;;;;;;;;;;;;20.30;62.67;98782.44;1084373;54;19950;-83
2023/07/25 14:41:52;;;;;;;;;;;;;;;20.15;62.10;98781.06;1084392;54;19977;-82
2023/07/25 14:42:52;;;;;;;;;;;;;;;20.25;62.12;98775.00;1083932;47;20862;-83
2023/07/25 14:43:56;;;;;;;;;;;;;;;20.28;62.12;98774.53;1084882;54;19943;-85
2023/07/25 14:44:56;;;;;;;;;;;;;;;20.27;61.51;98783.75;1084485;54;19977;-84
2023/07/25 14:46:00;;;;;;;;;;;;;;;20.37;62.08;98785.81;1084295;47;19962;-81
2023/07/25 14:47:00;;;;;;;;;;;;;;;20.39;62.23;98781.84;1084181;54;19946;-85
2023/07/25 14:48:04;;;;;;;;;;;;;;;20.38;61.48;98784.75;1084139;47;19946;-83
2023/07/25 14:49:04;;;;;;;;;;;;;;;20.26;60.53;98779.38;1085980;39;20485;-83
2023/07/25 14:50:09;;;;;;;;;;;;;;;20.15;60.51;98780.22;1084171;54;19956;-83
2023/07/25 14:51:10;;;;;;;;;;;;;;;20.05;60.37;98776.22;1085583;54;20522;-84
2023/07/25 14:52:13;;;;;;;;;;;;;;;19.94;59.42;98782.47;1085258;47;20005;-83
2023/07/25 14:53:15;;;;;;;;;;;;;;;20.01;59.88;98769.63;1084584;47;19939;-83
2023/07/25 14:54:21;;;;;;;;;;;;;;;20.10;59.60;98762.78;1085082;47;19972;-84
2023/07/25 14:55:22;;;;;;;;;;;;;;;20.14;59.65;98767.72;1085994;39;20337;-85
2023/07/25 14:56:25;;;;;;;;;;;;;;;20.14;59.78;98767.72;1085125;47;19946;-84
2023/07/25 14:57:26;;;;;;;;;;;;;;;20.08;59.62;98769.47;1085374;54;19946;-82
2023/07/25 14:58:29;;;;;;;;;;;;;;;20.04;59.83;98762.91;1084797;47;20064;-82
2023/07/25 14:59:30;;;;;;;;;;;;;;;19.96;59.81;98761.38;1086286;54;19950;-84
2023/07/25 15:00:34;;;;;;;;;;;;;;;20.14;59.49;98768.56;1086845;39;20643;-84
2023/07/25 15:01:35;;;;;;;;;;;;;;;20.21;59.31;98768.44;1086130;47;19970;-85
2023/07/25 15:02:39;;;;;;;;;;;;;;;20.23;59.03;98763.56;1086277;54;19946;-83
2023/07/25 15:03:39;;;;;;;;;;;;;;;20.39;59.36;98770.13;1087487;39;20358;-84
2023/07/25 15:04:43;;;;;;;;;;;;;;;20.38;59.45;98765.78;1085644;54;19954;-84
2023/07/25 15:05:44;;;;;;;;;;;;;;;20.44;59.39;98767.53;1084949;47;19950;-83
2023/07/25 15:06:47;;;;;;;;;;;;;;;20.43;59.90;98765.88;1085484;47;20594;-84
2023/07/25 15:07:48;;;;;;;;;;;;;;;20.48;59.36;98763.25;1086466;54;19950;-85
2023/07/25 15:08:51;;;;;;;;;;;;;;;20.54;58.96;98765.03;1086098;54;20002;-86
2023/07/25 15:09:54;;;;;;;;;;;;;;;20.60;59.09;98768.63;1085827;54;19951;-83
2023/07/25 15:10:58;;;;;;;;;;;;;;;20.67;58.94;98768.50;1085959;54;19973;-84
2023/07/25 15:11:59;;;;;;;;;;;;;;;20.73;58.88;98771.13;1086095;54;19955;-85
2023/07/25 15:13:00;;;;;;;;;;;;;;;20.43;58.88;98776.75;1086192;54;20052;-85
2023/07/25 15:14:03;;;;;;;;;;;;;;;20.20;59.34;98774.91;1086407;54;19943;-84
2023/07/25 15:15:05;;;;;;;;;;;;;;;20.20;59.61;98767.59;1086757;54;19967;-85
2023/07/25 15:16:10;;;;;;;;;;;;;;;20.18;59.61;98774.31;1086573;47;19938;-84
2023/07/25 15:17:17;;;;;;;;;;;;;;;20.35;59.53;98775.22;1086390;54;20025;-85
2023/07/25 15:18:20;;;;;;;;;;;;;;;20.35;59.35;98780.66;1085801;47;19947;-84
2023/07/25 15:19:21;;;;;;;;;;;;;;;20.21;59.24;98779.28;1086319;54;19947;-85
2023/07/25 15:20:25;;;;;;;;;;;;;;;20.17;58.92;98772.66;1086814;53;19943;-84
2023/07/25 15:21:26;;;;;;;;;;;;;;;20.08;58.29;98775.75;1086927;47;20010;-84
2023/07/25 15:22:29;;;;;;;;;;;;;;;19.96;58.47;98783.06;1087128;47;19950;-84
2023/07/25 15:23:30;;;;;;;;;;;;;;;19.92;58.32;98773.78;1086679;54;19943;-83
2023/07/25 15:24:33;;;;;;;;;;;;;;;19.88;57.62;98778.00;1087143;54;19974;-84
2023/07/25 15:25:37;;;;;;;;;;;;;;;19.79;58.23;98775.63;1086647;54;19943;-85
2023/07/25 15:26:40;;;;;;;;;;;;;;;19.68;58.11;98781.06;1086781;47;19943;-84
2023/07/25 15:27:41;;;;;;;;;;;;;;;19.61;58.31;98786.59;1086880;54;19934;-84
2023/07/25 15:28:44;;;;;;;;;;;;;;;19.64;58.90;98786.94;1086788;54;19980;-84
2023/07/25 15:29:45;;;;;;;;;;;;;;;19.64;59.07;98781.50;1086957;47;19950;-83
2023/07/25 15:30:48;;;;;;;;;;;;;;;19.64;58.94;98786.13;1087205;54;19949;-83
2023/07/25 15:31:51;;;;;;;;;;;;;;;19.48;59.07;98791.16;1087048;54;19942;-85
2023/07/25 15:32:54;;;;;;;;;;;;;;;19.44;59.69;98792.69;1086811;47;19950;-84
2023/07/25 15:33:55;;;;;;;;;;;;;;;19.42;59.74;98794.81;1087076;54;19967;-84
2023/07/25 15:35:00;;;;;;;;;;;;;;;19.42;59.96;98797.53;1086984;54;19963;-84
2023/07/25 15:36:01;;;;;;;;;;;;;;;19.55;59.85;98792.94;1086790;54;20301;-83
2023/07/25 15:37:05;;;;;;;;;;;;;;;19.44;60.10;98792.69;1087266;54;19927;-84
2023/07/25 15:38:06;;;;;;;;;;;;;;;19.39;60.44;98805.28;1087501;47;19946;-85
2023/07/25 15:39:09;;;;;;;;;;;;;;;19.48;60.41;98799.28;1086963;54;19947;-85
2023/07/25 15:40:11;;;;;;;;;;;;;;;19.32;60.86;98805.41;1087756;54;19975;-84
2023/07/25 15:41:17;;;;;;;;;;;;;;;19.27;60.95;98805.28;1087682;47;19938;-84
2023/07/25 15:42:18;;;;;;;;;;;;;;;19.21;61.21;98809.75;1087447;54;19939;-83
2023/07/25 15:43:21;;;;;;;;;;;;;;;19.17;61.38;98806.66;1087724;47;19942;-84
2023/07/25 15:44:22;;;;;;;;;;;;;;;19.23;61.63;98813.00;1087863;54;20343;-83
2023/07/25 15:45:25;;;;;;;;;;;;;;;19.24;61.73;98813.84;1087662;54;19966;-83
2023/07/25 15:46:26;;;;;;;;;;;;;;;19.06;61.73;98812.03;1089309;31;20515;-85
2023/07/25 15:47:29;;;;;;;;;;;;;;;18.99;62.29;98809.41;1087414;47;19950;-84
2023/07/25 15:48:32;;;;;;;;;;;;;;;18.99;62.24;98812.13;1087559;54;19942;-84
2023/07/25 15:49:35;;;;;;;;;;;;;;;19.05;62.05;98811.22;1087359;54;19973;-84
2023/07/25 15:50:36;;;;;;;;;;;;;;;18.91;62.34;98815.13;1087190;54;19943;-85
2023/07/25 15:51:40;;;;;;;;;;;;;;;18.92;62.79;98817.63;1086921;54;19973;-83
2023/07/25 15:52:43;;;;;;;;;;;;;;;18.81;63.01;98823.81;1086960;47;19990;-83
2023/07/25 15:53:47;;;;;;;;;;;;;;;18.82;62.89;98818.16;1087743;54;19950;-84
2023/07/25 15:54:47;;;;;;;;;;;;;;;18.85;63.35;98816.84;1087848;54;19935;-83
2023/07/25 15:55:57;;;;;;;;;;;;;;;18.90;63.33;98821.59;1087850;54;19966;-84
2023/07/25 15:57:00;;;;;;;;;;;;;;;18.79;64.03;98815.06;1087918;54;19951;-85
2023/07/25 15:58:04;;;;;;;;;;;;;;;18.91;63.41;98821.38;1088004;54;19943;-84
2023/07/25 15:59:16;;;;;;;;;;;;;;;18.88;64.17;98816.41;1087816;54;19942;-85
2023/07/25 16:00:27;;;;;;;;;;;;;;;18.88;64.02;98826.44;1087848;54;20010;-84
2023/07/25 16:01:53;;;;;;;;;;;;;;;18.89;64.04;98830.78;1087929;47;19950;-84
2023/07/25 16:03:05;;;;;;;;;;;;;;;19.04;63.96;98830.38;1088066;54;20045;-83
2023/07/25 16:04:15;;;;;;;;;;;;;;;19.07;63.96;98824.50;1088009;54;20035;-84
2023/07/25 16:05:33;;;;;;;;;;;;;;;19.11;64.15;98831.94;1087991;47;19939;-84
2023/07/25 16:06:34;;;;;;;;;;;;;;;19.11;64.58;98826.53;1087906;54;19950;-84
2023/07/25 16:07:41;;;;;;;;;;;;;;;19.18;64.11;98835.38;1087806;47;19959;-84
2023/07/25 16:08:42;;;;;;;;;;;;;;;19.24;64.68;98830.94;1087873;54;19966;-85
2023/07/25 16:09:45;;;;;;;;;;;;;;;19.27;64.75;98837.78;1087612;54;19963;-83
2023/07/25 16:10:46;;;;;;;;;;;;;;;19.14;65.15;98836.91;1087509;47;19966;-83
2023/07/25 16:11:50;;;;;;;;;;;;;;;18.90;66.83;98844.09;1086935;54;19943;-84
2023/07/25 16:12:54;;;;;;;;;;;;;;;18.80;67.67;98851.94;1086944;54;20529;-85
2023/07/25 16:13:57;;;;;;;;;;;;;;;18.90;68.06;98846.78;1086546;54;20002;-83
2023/07/25 16:19:31;;;;;;;;;;;;;;;18.51;71.99;98857.91;1087331;46;19945;-85
2023/07/25 16:20:34;;;;;;;;;;;;;;;18.23;72.61;98856.50;1086533;47;19971;-86
2023/07/25 16:21:39;;;;;;;;;;;;;;;18.26;72.23;98865.22;1086621;39;20376;-82
2023/07/25 16:22:39;;;;;;;;;;;;;;;18.01;73.04;98864.22;1085837;47;20492;-83
2023/07/25 16:23:43;;;;;;;;;;;;;;;17.92;73.99;98866.38;1086096;54;20004;-81
2023/07/25 16:24:43;;;;;;;;;;;;;;;17.86;74.47;98869.94;1085341;54;19946;-82
2023/07/25 16:25:48;;;;;;;;;;;;;;;17.70;75.00;98871.34;1085227;54;19947;-84
2023/07/25 16:26:49;;;;;;;;;;;;;;;17.58;75.02;98879.28;1086225;47;20659;-82
2023/07/25 16:27:52;;;;;;;;;;;;;;;17.60;75.35;98873.69;1086501;54;19942;-83
2023/07/25 16:28:55;;;;;;;;;;;;;;;17.46;75.85;98871.06;1085777;54;20619;-80
2023/07/25 16:29:59;;;;;;;;;;;;;;;17.42;76.57;98869.03;1086551;54;20017;-81
2023/07/25 16:31:01;;;;;;;;;;;;;;;17.48;76.43;98873.53;1086076;47;19971;-83
2023/07/25 16:32:10;;;;;;;;;;;;;;;17.49;76.46;98874.41;1088680;39;20882;-81
2023/07/25 16:33:11;;;;;;;;;;;;;;;17.38;76.50;98871.34;1087738;54;19950;-82
2023/07/25 16:34:14;;;;;;;;;;;;;;;17.38;76.79;98873.22;1088146;46;19958;-84
2023/07/25 16:35:15;;;;;;;;;;;;;;;17.43;77.04;98876.91;1098322;31;20754;-83
2023/07/25 16:36:24;;;;;;;;;;;;;;;17.41;76.62;98879.03;1087844;47;19958;-83
2023/07/25 16:37:28;;;;;;;;;;;;;;;17.36;76.18;98875.31;1088150;46;19951;-84
2023/07/25 16:38:42;;;;;;;;;;;;;;;17.22;76.82;98886.19;1087755;46;19996;-82
2023/07/25 16:39:45;;;;;;;;;;;;;;;17.12;77.30;98885.81;1087892;54;19933;-84
2023/07/25 16:40:54;;;;;;;;;;;;;;;16.91;78.15;98884.25;1088153;46;19927;-83
2023/07/25 16:51:30;;;;;;;;;;;;;;;16.82;80.23;98907.94;1087562;47;19941;-84
2023/07/25 16:58:30;;;;;;;;;;;;;;;;;;;;;
2023/07/25 17:08:36;;;;;;;;;;;;;;;16.58;81.74;98939.16;1087049;47;19954;-81
2023/07/25 17:11:42;;;;;;;;;;;;;;;16.56;81.95;98952.03;1087863;54;19943;-84
2023/07/25 17:13:04;;;;;;;;;;;;;;;16.53;82.05;98958.69;1087577;54;19949;-85
2023/07/25 17:16:05;;;;;;;;;;;;;;;16.48;81.40;98961.97;1087709;54;19995;-82
2023/07/25 17:17:30;;;;;;;;;;;;;;;16.44;81.86;98968.00;1087662;46;19942;-83
2023/07/25 17:18:51;;;;;;;;;;;;;;;;;;;;;
2023/07/25 17:20:31;;;;;;;;;;;;;;;16.35;81.79;98973.63;1087896;54;19927;-83
2023/07/25 17:21:55;;;;;;;;;;;;;;;16.26;82.46;98977.56;1088132;54;19927;-85
2023/07/25 17:28:40;;;;;;;;;;;;;;;16.22;83.88;98984.41;1087593;54;19939;-84
2023/07/25 17:29:43;;;;;;;;;;;;;;;16.19;84.38;98980.28;1087417;47;19943;-84
2023/07/25 17:30:56;;;;;;;;;;;;;;;16.06;84.61;98985.66;1087689;54;19942;-85
2023/07/25 17:31:59;;;;;;;;;;;;;;;16.00;84.81;98987.31;1087724;54;19994;-84
2023/07/25 17:33:10;;;;;;;;;;;;;;;16.01;85.68;98988.97;1087218;47;20596;-84
2023/07/25 17:34:22;;;;;;;;;;;;;;;16.17;86.45;98993.13;1086833;54;19966;-84
2023/07/25 17:35:42;;;;;;;;;;;;;;;16.18;85.24;98994.78;1087805;47;19954;-84
2023/07/25 17:36:44;;;;;;;;;;;;;;;16.19;85.25;98995.63;1087429;54;19942;-84
2023/07/25 17:37:51;;;;;;;;;;;;;;;16.25;85.34;98999.34;1087533;54;19950;-82
2023/07/25 17:38:52;;;;;;;;;;;;;;;16.23;86.77;99002.25;1087770;46;19962;-83
2023/07/25 17:39:56;;;;;;;;;;;;;;;16.17;86.92;99003.06;1087524;47;20536;-84
2023/07/25 17:41:03;;;;;;;;;;;;;;;16.19;87.56;99003.69;1087834;54;20026;-84
2023/07/25 17:42:10;;;;;;;;;;;;;;;16.22;86.68;99004.13;1087593;47;19927;-84
2023/07/25 17:43:25;;;;;;;;;;;;;;;16.28;85.95;99002.47;1087661;47;19943;-84
2023/07/25 17:44:34;;;;;;;;;;;;;;;16.33;85.56;99007.22;1087744;54;19998;-85
2023/07/25 17:45:45;;;;;;;;;;;;;;;16.37;87.47;99013.88;1087742;54;20755;-85
2023/07/25 17:46:50;;;;;;;;;;;;;;;16.20;87.16;99014.28;1087654;47;19950;-83
2023/07/25 17:47:51;;;;;;;;;;;;;;;16.26;86.98;99018.00;1087291;54;19975;-82
2023/07/25 17:48:57;;;;;;;;;;;;;;;16.32;85.76;99006.41;1087059;47;20776;-83
2023/07/25 17:50:30;;;;;;;;;;;;;;;16.19;87.66;99011.78;1087757;54;19943;-84
2023/07/25 17:51:44;;;;;;;;;;;;;;;16.22;87.75;99025.69;1087622;47;19943;-85
2023/07/25 17:53:07;;;;;;;;;;;;;;;16.14;86.73;99019.69;1087812;54;20098;-84
2023/07/25 17:54:21;;;;;;;;;;;;;;;16.14;86.99;99025.06;1087373;54;19943;-81
2023/07/25 17:55:25;;;;;;;;;;;;;;;16.09;87.44;99019.44;1087379;54;19943;-82
2023/07/25 17:56:33;;;;;;;;;;;;;;;16.06;86.66;99024.22;1087539;54;19943;-83
2023/07/25 17:57:45;;;;;;;;;;;;;;;16.18;87.31;99029.84;1087539;47;19951;-84
2023/07/25 18:04:14;;;;;;;;;;;;;;;16.26;85.60;99034.19;1087416;39;20587;-84
2023/07/25 18:05:15;;;;;;;;;;;;;;;16.27;85.70;99026.94;1088089;54;19938;-84
2023/07/25 18:06:19;;;;;;;;;;;;;;;16.22;86.95;99039.16;1087709;47;19946;-84
2023/07/25 18:07:19;;;;;;;;;;;;;;;16.23;86.85;99037.31;1087821;54;19954;-83
2023/07/25 19:06:29;;;;;;;;;;;;;;;16.28;85.30;99114.91;1087881;47;19939;-86
2023/07/25 19:11:08;;;;;;;;;;;;;;;16.17;86.39;99127.09;1087912;47;19942;-83
2023/07/25 19:12:36;;;;;;;;;;;;;;;16.14;86.07;99127.53;1088160;47;19934;-86
2023/07/25 19:13:50;;;;;;;;;;;;;;;16.24;86.01;99133.34;1088110;47;19926;-86
2023/07/25 19:14:51;;;;;;;;;;;;;;;16.15;85.99;99129.19;1088100;47;20612;-85
2023/07/25 19:15:53;;;;;;;;;;;;;;;16.13;86.05;99128.56;1088072;47;19929;-86
2023/07/25 19:16:59;;;;;;;;;;;;;;;16.15;86.42;99139.97;1087908;47;20828;-85
2023/07/25 19:18:17;;;;;;;;;;;;;;;16.22;86.14;99138.13;1088225;54;20002;-87
2023/07/25 19:29:20;;;;;;;;;;;;;;;16.09;86.95;99163.19;1088271;54;19939;-85
2023/07/25 19:32:12;;;;;;;;;;;;;;;16.13;87.24;99158.22;1088274;54;19946;-88
2023/07/25 19:42:17;;;;;;;;;;;;;;;15.88;88.07;99191.91;1087836;47;19961;-86
2023/07/25 19:43:26;;;;;;;;;;;;;;;15.91;87.75;99193.38;1087987;54;19939;-84
2023/07/25 19:54:34;;;;;;;;;;;;;;;15.72;88.76;99205.69;1088119;47;20876;-85
2023/07/25 19:55:53;;;;;;;;;;;;;;;15.71;88.69;99201.34;1088152;54;19935;-85
2023/07/25 20:06:37;;;;;;;;;;;;;;;15.82;88.99;99225.00;1087974;54;19927;-83
2023/07/25 20:43:00;;;;;;;;;;;;;;;15.63;87.93;99277.75;1087941;47;19962;-85
2023/07/25 20:44:20;;;;;;;;;;;;;;;15.65;87.61;99278.38;1088165;47;19938;-85
2023/07/25 20:45:30;;;;;;;;;;;;;;;15.67;87.17;99273.66;1088383;46;19969;-85
2023/07/25 20:46:31;;;;;;;;;;;;;;;15.72;87.17;99279.25;1088354;47;19955;-86
2023/07/25 20:47:37;;;;;;;;;;;;;;;15.69;87.37;99276.13;1088135;46;19948;-86
2023/07/25 20:53:55;;;;;;;;;;;;;;;15.75;87.18;99275.31;1082888;54;19935;-86
2023/07/25 21:14:58;;;;;;;;;;;;;;;15.60;87.31;99307.75;1088149;54;19923;-86
2023/07/25 21:21:28;;;;;;;;;;;;;;;15.50;87.91;99315.34;1088575;54;19931;-86
2023/07/25 21:22:43;;;;;;;;;;;;;;;15.57;87.43;99314.38;1088462;46;19934;-87
2023/07/25 21:23:48;;;;;;;;;;;;;;;15.54;87.00;99317.44;1088214;47;19938;-86
2023/07/25 21:24:49;;;;;;;;;;;;;;;15.61;86.85;99317.50;1088253;47;20587;-85
2023/07/25 21:30:53;;;;;;;;;;;;;;;15.64;86.02;99317.13;1088312;46;19946;-84
2023/07/25 21:31:54;;;;;;;;;;;;;;;15.70;85.73;99323.59;1088271;46;19946;-85
2023/07/25 21:32:58;;;;;;;;;;;;;;;15.63;86.09;99323.53;1088198;47;19927;-83
2023/07/25 21:34:11;;;;;;;;;;;;;;;;;;;;;
2023/07/25 21:38:58;;;;;;;;;;;;;;;15.67;86.36;99324.84;1087006;54;19939;-82
2023/07/25 21:39:59;;;;;;;;;;;;;;;15.70;86.19;99320.91;1086990;54;19950;-84
2023/07/25 21:41:07;;;;;;;;;;;;;;;15.57;86.53;99322.47;1087828;47;19939;-83
2023/07/25 21:42:11;;;;;;;;;;;;;;;15.60;86.56;99322.06;1087571;47;19927;-84
2023/07/25 21:43:13;;;;;;;;;;;;;;;15.48;86.47;99322.81;1087908;47;19950;-85
2023/07/25 21:44:17;;;;;;;;;;;;;;;15.53;86.80;99328.44;1087750;54;19943;-84
2023/07/25 21:45:18;;;;;;;;;;;;;;;15.39;86.87;99328.34;1087823;47;19938;-85
2023/07/25 21:46:38;;;;;;;;;;;;;;;15.37;87.19;99330.38;1087813;47;20007;-84
2023/07/25 21:47:39;;;;;;;;;;;;;;;15.35;87.74;99329.75;1087592;46;19973;-84
2023/07/25 21:48:52;;;;;;;;;;;;;;;15.36;87.54;99336.78;1087484;47;19946;-85
2023/07/25 21:50:13;;;;;;;;;;;;;;;15.34;87.79;99330.75;1088013;54;19934;-85
2023/07/25 21:51:16;;;;;;;;;;;;;;;15.43;87.70;99332.28;1088540;54;19982;-84
2023/07/25 21:52:26;;;;;;;;;;;;;;;15.44;87.65;99333.13;1088113;47;19926;-86
2023/07/25 21:53:42;;;;;;;;;;;;;;;15.51;87.35;99322.41;1088177;54;19966;-84
2023/07/25 21:54:50;;;;;;;;;;;;;;;15.35;87.52;99335.13;1088329;54;19938;-84
2023/07/25 21:55:57;;;;;;;;;;;;;;;15.40;87.38;99338.06;1087894;47;19939;-86
2023/07/25 21:57:11;;;;;;;;;;;;;;;15.45;87.54;99334.78;1087972;47;19957;-84
2023/07/25 21:58:16;;;;;;;;;;;;;;;15.42;87.90;99330.63;1087954;47;19930;-85
2023/07/25 21:59:21;;;;;;;;;;;;;;;15.53;87.46;99341.91;1088008;54;19943;-84
2023/07/25 22:00:22;;;;;;;;;;;;;;;15.53;87.33;99336.50;1087922;47;19946;-84
2023/07/25 22:01:26;;;;;;;;;;;;;;;15.59;87.06;99341.13;1087976;47;19939;-85